Time;durP1;ratioP1;P1;durP2;ratioP2;P2;SDS_P1;SDS_P2;PMS_P1;PMS_P2;Temp;Humidity;BMP_temperature;BMP_pressure;BME280_temperature;BME280_humidity;BME280_pressure;Samples;Min_cycle;Max_cycle;Signal;HPM_P1;HPM_P2
2023/03/05 00:04:22;;;;;;;25.00;9.60;;;;;;;-4.52;99.26;100280.44;219749;1265;139542;-83
2023/03/05 00:09:22;;;;;;;22.20;8.70;;;;;;;-4.53;99.28;100273.42;219213;1266;139238;-83
2023/03/05 00:14:23;;;;;;;23.10;8.70;;;;;;;-4.56;99.50;100266.67;219792;1265;98044;-82
2023/03/05 00:19:23;;;;;;;23.40;8.70;;;;;;;-4.58;99.77;100267.39;219294;1266;139092;-82
2023/03/05 00:24:24;;;;;;;22.40;7.50;;;;;;;-4.63;99.56;100258.58;219688;1266;139502;-82
2023/03/05 00:29:24;;;;;;;20.40;7.30;;;;;;;-4.69;99.42;100250.35;219257;1269;139283;-82
2023/03/05 00:34:26;;;;;;;17.30;7.50;;;;;;;-4.69;99.78;100251.54;219749;1266;139226;-82
2023/03/05 00:39:27;;;;;;;22.90;8.10;;;;;;;-4.71;99.74;100249.40;219213;1265;139002;-82
2023/03/05 00:44:28;;;;;;;18.90;8.50;;;;;;;-4.76;99.87;100245.85;220643;1266;98882;-83
2023/03/05 00:49:28;;;;;;;18.00;6.90;;;;;;;-4.78;99.88;100243.45;219240;1265;139323;-82
2023/03/05 00:54:29;;;;;;;19.60;8.30;;;;;;;-4.80;99.97;100237.35;219923;1269;139075;-82
2023/03/05 00:59:29;;;;;;;16.60;7.40;;;;;;;-4.84;99.98;100228.64;219353;1265;140059;-82
2023/03/05 01:04:29;;;;;;;20.30;7.60;;;;;;;-4.87;99.95;100222.86;219706;1265;139029;-83
2023/03/05 01:09:30;;;;;;;17.20;7.00;;;;;;;-4.91;99.96;100218.54;219423;1266;139822;-82
2023/03/05 01:14:31;;;;;;;22.20;7.20;;;;;;;-4.95;99.97;100211.61;220047;1266;98898;-81
2023/03/05 01:19:31;;;;;;;21.50;7.30;;;;;;;-4.98;100.00;100208.40;219331;1265;139988;-82
2023/03/05 01:24:32;;;;;;;19.50;6.70;;;;;;;-5.01;100.00;100206.44;219875;1266;139535;-82
2023/03/05 01:29:32;;;;;;;23.80;8.50;;;;;;;-5.03;100.00;100197.39;219287;1266;139952;-82
2023/03/05 01:34:34;;;;;;;18.40;6.90;;;;;;;-5.06;100.00;100193.66;220626;1265;138591;-82
2023/03/05 01:39:35;;;;;;;19.50;7.30;;;;;;;-5.10;100.00;100185.10;219164;1265;140212;-82
2023/03/05 01:44:36;;;;;;;20.20;7.00;;;;;;;-5.13;100.00;100182.98;219873;1265;99167;-82
2023/03/05 01:49:40;;;;;;;19.00;7.10;;;;;;;-5.18;100.00;100182.36;219175;1265;140201;-83
2023/03/05 01:54:50;;;;;;;17.20;6.20;;;;;;;-5.20;100.00;100177.67;219811;1270;139463;-83
2023/03/05 02:00:00;;;;;;;18.60;6.40;;;;;;;-5.21;100.00;100181.27;219029;1266;140581;-82
2023/03/05 02:05:07;;;;;;;17.50;6.80;;;;;;;-5.25;100.00;100172.29;219620;1270;139568;-83
2023/03/05 02:10:23;;;;;;;16.90;6.40;;;;;;;-5.26;100.00;100165.10;218977;1270;139557;-83
2023/03/05 02:15:23;;;;;;;18.30;5.70;;;;;;;-5.26;100.00;100160.18;223750;1265;141254;-84
2023/03/05 02:20:28;;;;;;;22.40;7.10;;;;;;;-5.24;100.00;100152.49;223291;1265;139953;-82
2023/03/05 02:25:29;;;;;;;17.20;7.40;;;;;;;-5.18;100.00;100146.06;220612;1266;139745;-83
2023/03/05 02:30:30;;;;;;;21.80;7.80;;;;;;;-5.10;100.00;100135.69;219303;1266;140084;-82
2023/03/05 02:35:31;;;;;;;17.20;6.70;;;;;;;-5.03;100.00;100125.05;219661;1266;139478;-82
2023/03/05 02:40:31;;;;;;;17.10;6.30;;;;;;;-4.95;100.00;100114.40;219102;1269;140229;-83
2023/03/05 02:45:32;;;;;;;12.70;5.20;;;;;;;-4.86;100.00;100101.81;219720;1265;139541;-83
2023/03/05 02:50:34;;;;;;;17.10;6.30;;;;;;;-4.76;100.00;100090.86;219217;1265;139916;-83
2023/03/05 02:55:34;;;;;;;15.50;5.60;;;;;;;-4.66;100.00;100091.19;219742;1269;139341;-82
2023/03/05 03:00:35;;;;;;;15.00;5.70;;;;;;;-4.54;100.00;100084.23;219110;1269;139850;-83
2023/03/05 03:05:35;;;;;;;15.60;5.60;;;;;;;-4.45;100.00;100076.92;219818;1269;139538;-82
2023/03/05 03:10:36;;;;;;;15.20;5.60;;;;;;;-4.34;100.00;100074.20;219274;1265;141550;-83
2023/03/05 03:15:38;;;;;;;13.50;4.60;;;;;;;-4.23;100.00;100071.49;220687;1269;139535;-83
2023/03/05 03:20:38;;;;;;;15.00;5.10;;;;;;;-4.15;100.00;100066.81;219459;1271;139538;-83
2023/03/05 03:25:39;;;;;;;18.80;7.00;;;;;;;-4.05;100.00;100060.23;219706;1271;139781;-82
2023/03/05 03:30:39;;;;;;;13.30;5.30;;;;;;;-3.96;100.00;100047.89;219170;1265;140103;-83
2023/03/05 03:35:39;;;;;;;15.50;7.10;;;;;;;-3.85;100.00;100037.79;219543;1266;139536;-83
2023/03/05 03:40:40;;;;;;;15.00;5.10;;;;;;;-3.76;100.00;100034.81;219593;1266;140315;-83
2023/03/05 03:45:42;;;;;;;16.10;5.80;;;;;;;-3.67;100.00;100029.92;219964;1269;140147;-83
2023/03/05 03:50:43;;;;;;;14.90;4.90;;;;;;;-3.58;100.00;100028.11;219509;1266;139611;-83
2023/03/05 03:55:45;;;;;;;14.20;4.90;;;;;;;-3.49;100.00;100019.73;219891;1266;139463;-82
2023/03/05 04:00:45;;;;;;;14.70;5.20;;;;;;;-3.40;100.00;100007.31;219464;1266;139632;-82
2023/03/05 04:05:46;;;;;;;15.60;5.10;;;;;;;-3.33;100.00;99997.39;220442;1266;139528;-83
2023/03/05 04:10:46;;;;;;;13.60;4.90;;;;;;;-3.23;100.00;99986.45;219372;1270;139659;-83
2023/03/05 04:15:47;;;;;;;13.30;4.30;;;;;;;-3.09;100.00;99973.16;219667;1269;139425;-83
2023/03/05 04:20:47;;;;;;;14.70;4.30;;;;;;;-3.02;100.00;99967.20;219322;1266;139778;-83
2023/03/05 04:25:47;;;;;;;15.80;5.00;;;;;;;-2.95;100.00;99958.80;219599;1266;139030;-83
2023/03/05 04:30:48;;;;;;;13.10;5.20;;;;;;;-2.90;100.00;99954.48;219159;1269;142705;-84
2023/03/05 04:35:49;;;;;;;14.70;4.30;;;;;;;-2.84;100.00;99954.30;219668;1266;139418;-84
2023/03/05 04:40:49;;;;;;;13.20;5.10;;;;;;;-2.78;100.00;99945.17;219083;1265;139374;-83
2023/03/05 04:45:50;;;;;;;12.80;5.00;;;;;;;-2.73;100.00;99940.67;219669;1266;139727;-83
2023/03/05 04:50:50;;;;;;;15.70;5.50;;;;;;;-2.68;100.00;99936.83;219194;1269;139684;-83
2023/03/05 04:55:53;;;;;;;13.00;4.70;;;;;;;-2.63;100.00;99925.78;220283;1266;139101;-83
2023/03/05 05:00:53;;;;;;;12.30;4.90;;;;;;;-2.58;100.00;99919.12;219078;1269;140173;-83
2023/03/05 05:05:58;;;;;;;14.50;4.90;;;;;;;-2.51;100.00;99920.16;219632;1270;139346;-84
2023/03/05 05:11:04;;;;;;;16.00;5.60;;;;;;;-2.47;100.00;99920.02;219123;1266;140132;-83
2023/03/05 05:16:06;;;;;;;15.30;5.30;;;;;;;-2.42;100.00;99922.84;218976;1270;190359;-83
2023/03/05 05:21:11;;;;;;;15.20;5.40;;;;;;;-2.37;100.00;99924.51;219754;1266;139957;-83
2023/03/05 05:26:13;;;;;;;16.80;5.50;;;;;;;-2.31;100.00;99930.41;223278;1266;139744;-83
2023/03/05 05:31:15;;;;;;;17.10;5.30;;;;;;;-2.25;100.00;99924.76;223763;1266;139087;-84
2023/03/05 05:36:18;;;;;;;13.10;4.70;;;;;;;-2.16;100.00;99915.30;223192;1265;140414;-83
2023/03/05 05:41:18;;;;;;;17.50;6.30;;;;;;;-2.07;100.00;99912.77;223728;1265;139305;-83
2023/03/05 05:46:20;;;;;;;17.80;5.60;;;;;;;-2.00;100.00;99908.44;221551;1266;140940;-84
2023/03/05 05:51:22;;;;;;;15.50;5.40;;;;;;;-1.94;100.00;99911.03;219737;1266;140120;-83
2023/03/05 05:56:23;;;;;;;17.90;5.60;;;;;;;-1.89;100.00;99910.31;219241;1266;139879;-82
2023/03/05 06:01:30;;;;;;;19.00;6.10;;;;;;;-1.82;100.00;99908.07;219571;1266;139867;-84
2023/03/05 06:06:30;;;;;;;19.30;6.80;;;;;;;-1.73;100.00;99910.67;219180;1266;140082;-83
2023/03/05 06:11:31;;;;;;;15.10;6.00;;;;;;;-1.68;100.00;99905.52;219648;1271;139766;-84
2023/03/05 06:16:31;;;;;;;14.50;5.70;;;;;;;-1.63;100.00;99903.55;219085;1269;139821;-84
2023/03/05 06:21:32;;;;;;;17.80;4.90;;;;;;;-1.55;100.00;99907.75;219618;1269;140181;-84
2023/03/05 06:26:32;;;;;;;9.10;3.50;;;;;;;-1.45;100.00;99901.61;219178;1270;139703;-84
2023/03/05 06:31:34;;;;;;;13.40;3.90;;;;;;;-1.38;100.00;99904.05;219642;1269;139587;-83
2023/03/05 06:36:34;;;;;;;11.50;4.20;;;;;;;-1.32;100.00;99895.32;219211;1266;139614;-82
2023/03/05 06:41:35;;;;;;;11.80;4.10;;;;;;;-1.27;100.00;99895.02;219907;1269;139631;-83
2023/03/05 06:46:36;;;;;;;14.50;4.10;;;;;;;-1.23;100.00;99887.20;219098;1266;142364;-85
2023/03/05 06:51:38;;;;;;;14.80;4.50;;;;;;;-1.19;100.00;99881.36;219616;1270;139552;-84
2023/03/05 06:56:41;;;;;;;9.40;3.10;;;;;;;-1.15;100.00;99877.19;219130;1266;139360;-84
2023/03/05 07:01:42;;;;;;;9.30;3.40;;;;;;;-1.11;100.00;99876.38;219758;1267;139667;-84
2023/03/05 07:06:43;;;;;;;10.70;3.00;;;;;;;-1.07;100.00;99870.31;218982;1266;140126;-85
2023/03/05 07:11:43;;;;;;;10.90;3.20;;;;;;;-1.03;100.00;99866.64;219510;1265;139470;-84
2023/03/05 07:16:44;;;;;;;12.60;4.60;;;;;;;-1.00;100.00;99869.64;219070;1266;139820;-85
2023/03/05 07:21:44;;;;;;;10.80;3.50;;;;;;;-0.96;100.00;99871.88;219454;1269;140134;-85
2023/03/05 07:26:44;;;;;;;14.80;3.60;;;;;;;-0.92;100.00;99869.44;219221;1269;140099;-84
2023/03/05 07:31:45;;;;;;;13.80;3.50;;;;;;;-0.86;100.00;99868.52;220005;1266;139945;-85
2023/03/05 07:36:48;;;;;;;10.50;4.00;;;;;;;-0.82;100.00;99860.94;219285;1267;139921;-85
2023/03/05 07:41:50;;;;;;;10.20;3.10;;;;;;;-0.80;100.00;99854.11;219740;1270;140013;-84
2023/03/05 07:46:50;;;;;;;10.50;4.70;;;;;;;-0.78;100.00;99854.58;219095;1270;139904;-84
2023/03/05 07:51:51;;;;;;;9.00;3.60;;;;;;;-0.73;100.00;99847.79;219698;1269;140035;-84
2023/03/05 07:56:53;;;;;;;10.00;3.50;;;;;;;-0.68;100.00;99846.67;219186;1269;139552;-85
2023/03/05 08:01:54;;;;;;;10.80;3.40;;;;;;;-0.64;100.00;99842.27;219828;1265;98409;-85
2023/03/05 08:06:54;;;;;;;11.10;3.80;;;;;;;-0.59;100.00;99832.12;219302;1269;139739;-85
2023/03/05 08:11:55;;;;;;;10.20;3.30;;;;;;;-0.51;100.00;99831.80;219783;1269;140060;-85
2023/03/05 08:16:55;;;;;;;12.40;4.70;;;;;;;-0.44;100.00;99828.63;219224;1270;140465;-85
2023/03/05 08:21:56;;;;;;;11.10;3.80;;;;;;;-0.38;100.00;99827.05;220454;1269;140695;-85
2023/03/05 08:26:57;;;;;;;12.70;4.60;;;;;;;-0.30;100.00;99824.33;219420;1269;140402;-85
2023/03/05 08:31:57;;;;;;;12.20;4.80;;;;;;;-0.20;100.00;99822.05;220160;1269;99243;-85
2023/03/05 08:36:58;;;;;;;12.90;4.00;;;;;;;-0.11;100.00;99823.56;219241;1267;139011;-83
2023/03/05 08:41:58;;;;;;;13.50;4.50;;;;;;;-0.01;100.00;99821.16;219943;1270;139819;-83
2023/03/05 08:46:58;;;;;;;14.20;5.20;;;;;;;0.10;100.00;99822.54;219261;1269;139919;-82
2023/03/05 08:51:59;;;;;;;16.40;4.00;;;;;;;0.19;100.00;99816.17;219691;1269;139573;-81
2023/03/05 08:56:59;;;;;;;10.50;3.40;;;;;;;0.25;100.00;99810.89;219486;1267;140292;-80
2023/03/05 09:02:01;;;;;;;11.80;3.90;;;;;;;0.31;100.00;99809.25;220012;1270;99187;-81
2023/03/05 09:07:01;;;;;;;11.60;3.60;;;;;;;0.36;100.00;99812.16;219414;1267;139646;-82
2023/03/05 09:12:01;;;;;;;14.10;4.30;;;;;;;0.39;100.00;99808.90;220300;1270;139244;-82
2023/03/05 09:17:02;;;;;;;13.30;3.90;;;;;;;0.44;100.00;99810.89;219533;1269;139168;-81
2023/03/05 09:22:02;;;;;;;13.90;4.20;;;;;;;0.52;100.00;99814.44;220000;1270;139508;-82
2023/03/05 09:27:03;;;;;;;16.20;3.80;;;;;;;0.57;100.00;99808.73;219678;1269;139720;-83
2023/03/05 09:32:04;;;;;;;13.60;3.90;;;;;;;0.65;100.00;99809.73;220198;1266;98049;-84
2023/03/05 09:37:04;;;;;;;12.30;3.20;;;;;;;0.77;100.00;99808.52;219360;1266;140127;-84
2023/03/05 09:42:33;;;;;;;10.90;3.40;;;;;;;0.87;100.00;99810.00;219817;1269;139835;-85
2023/03/05 09:47:55;;;;;;;10.80;3.40;;;;;;;0.97;100.00;99804.36;219350;1266;139367;-86
2023/03/05 09:53:28;;;;;;;16.30;4.80;;;;;;;1.09;100.00;99801.44;219988;1270;139216;-87
2023/03/05 09:58:36;;;;;;;10.70;3.60;;;;;;;1.24;100.00;99802.55;219401;1266;139370;-87
2023/03/05 10:03:59;;;;;;;11.40;3.70;;;;;;;1.43;100.00;99800.06;220159;1269;139080;-86
2023/03/05 10:09:13;;;;;;;10.70;3.10;;;;;;;1.62;100.00;99799.61;219432;1267;139896;-87
2023/03/05 10:14:37;;;;;;;16.80;2.90;;;;;;;1.81;100.00;99796.33;220054;1265;97930;-88
2023/03/05 10:20:02;;;;;;;9.80;3.60;;;;;;;1.98;100.00;99791.73;219275;1267;138761;-87
2023/03/05 10:25:32;;;;;;;9.80;2.60;;;;;;;2.17;99.44;99785.11;219895;1269;139053;-87
2023/03/05 10:30:48;;;;;;;12.50;3.30;;;;;;;2.44;99.46;99780.67;219321;1270;139111;-86
2023/03/05 10:36:16;;;;;;;9.30;2.70;;;;;;;2.87;99.04;99780.97;219890;1267;138801;-85
2023/03/05 10:41:28;;;;;;;7.70;2.80;;;;;;;3.34;96.52;99774.60;219691;1267;139224;-88
2023/03/05 10:46:35;;;;;;;8.90;2.30;;;;;;;3.49;94.87;99776.45;219288;1270;139035;-87
2023/03/05 10:51:56;;;;;;;8.90;3.20;;;;;;;3.53;94.42;99770.27;219696;1266;138735;-85
2023/03/05 10:57:03;;;;;;;8.20;2.70;;;;;;;3.53;92.95;99770.03;219599;1267;138909;-88
2023/03/05 11:02:07;;;;;;;9.20;3.20;;;;;;;3.52;92.99;99766.69;220390;1267;97959;-88
2023/03/05 11:07:29;;;;;;;8.10;2.50;;;;;;;3.56;92.74;99771.98;219336;1267;138694;-87
2023/03/05 11:12:37;;;;;;;7.50;2.20;;;;;;;3.42;91.05;99773.92;219990;1269;138885;-89
2023/03/05 11:17:48;;;;;;;7.70;2.60;;;;;;;3.33;90.35;99772.09;219397;1266;138849;-87
2023/03/05 11:23:16;;;;;;;8.40;2.30;;;;;;;3.21;89.53;99779.75;219917;1267;138806;-88
2023/03/05 11:28:19;;;;;;;8.90;2.70;;;;;;;3.05;89.54;99782.22;219312;1265;138869;-88
2023/03/05 11:33:22;;;;;;;11.10;3.30;;;;;;;2.97;89.74;99786.85;219890;1266;138892;-87
2023/03/05 11:38:26;;;;;;;7.50;2.80;;;;;;;2.77;90.45;99793.62;219285;1265;139423;-89
2023/03/05 11:43:32;;;;;;;14.70;4.00;;;;;;;2.65;91.18;99786.00;219906;1269;138583;-88
2023/03/05 11:48:40;;;;;;;9.80;2.50;;;;;;;2.53;91.00;99785.06;219657;1267;138748;-88
2023/03/05 11:53:43;;;;;;;6.80;2.00;;;;;;;2.38;91.15;99785.13;219867;1270;139308;-87
2023/03/05 11:59:17;;;;;;;7.20;2.30;;;;;;;2.30;91.42;99787.75;219360;1265;139705;-89
2023/03/05 12:04:19;;;;;;;6.20;2.20;;;;;;;2.22;91.35;99782.34;219715;1266;138719;-89
2023/03/05 12:09:40;;;;;;;7.10;2.60;;;;;;;2.18;91.69;99782.91;219159;1269;138794;-88
2023/03/05 12:14:47;;;;;;;11.00;3.40;;;;;;;2.13;91.82;99781.11;219912;1265;98499;-89
2023/03/05 12:20:00;;;;;;;10.90;3.70;;;;;;;2.07;91.71;99777.55;219462;1265;138762;-88
2023/03/05 12:25:46;;;;;;;8.60;3.20;;;;;;;1.97;91.55;99769.61;219915;1270;140900;-88
2023/03/05 12:30:46;;;;;;;10.80;3.60;;;;;;;1.92;91.60;99760.54;219525;1266;138772;-88
2023/03/05 12:35:46;;;;;;;10.10;3.60;;;;;;;1.92;92.12;99758.34;220028;1265;138897;-88
2023/03/05 12:40:47;;;;;;;9.60;3.20;;;;;;;1.99;92.40;99761.85;219755;1265;138891;-90
2023/03/05 12:45:50;;;;;;;17.50;4.20;;;;;;;2.04;92.17;99767.00;220215;1267;138649;-89
2023/03/05 12:50:57;;;;;;;8.70;3.70;;;;;;;2.03;91.76;99765.17;219669;1265;139930;-89
2023/03/05 12:56:20;;;;;;;14.70;4.60;;;;;;;2.03;91.73;99761.82;219659;1265;138770;-90
2023/03/05 13:01:49;;;;;;;14.40;3.70;;;;;;;2.03;91.16;99759.11;219926;1265;138920;-90
2023/03/05 13:07:12;;;;;;;10.20;3.30;;;;;;;2.00;91.04;99759.73;219348;1265;139352;-89
2023/03/05 13:12:13;;;;;;;8.20;2.70;;;;;;;1.96;90.89;99758.50;219892;1269;139807;-89
2023/03/05 13:17:31;;;;;;;9.40;3.90;;;;;;;1.95;91.04;99756.73;219298;1266;138821;-87
2023/03/05 13:22:32;;;;;;;11.70;4.20;;;;;;;1.94;90.37;99763.16;219798;1265;139580;-90
2023/03/05 13:27:35;;;;;;;9.30;3.50;;;;;;;1.92;90.34;99761.98;219463;1265;139363;-90
2023/03/05 13:32:36;;;;;;;12.80;3.90;;;;;;;1.94;90.54;99763.60;220584;1265;96573;-89
2023/03/05 13:37:37;;;;;;;15.50;3.60;;;;;;;2.02;90.25;99761.57;219302;1269;140561;-89
2023/03/05 13:42:37;;;;;;;8.70;3.10;;;;;;;2.06;89.83;99753.35;219974;1266;138918;-92
2023/03/05 13:47:38;;;;;;;10.60;3.10;;;;;;;2.09;89.75;99749.17;219417;1269;139487;-89
2023/03/05 13:52:38;;;;;;;8.70;2.90;;;;;;;2.14;89.31;99747.56;219876;1265;139499;-89
2023/03/05 13:57:44;;;;;;;57.00;18.40;;;;;;;2.18;89.75;99737.46;219419;1269;139709;-89
2023/03/05 14:02:45;;;;;;;10.70;3.50;;;;;;;2.25;89.47;99729.46;220006;1270;112144;-89
2023/03/05 14:07:50;;;;;;;12.90;4.90;;;;;;;2.25;88.64;99725.36;219533;1265;139289;-89
2023/03/05 14:12:50;;;;;;;10.60;2.80;;;;;;;2.25;88.28;99725.68;219821;1270;139758;-89
2023/03/05 14:18:06;;;;;;;12.50;4.50;;;;;;;2.24;88.07;99719.58;219537;1266;139687;-89
2023/03/05 14:23:24;;;;;;;10.10;3.50;;;;;;;2.27;88.63;99717.20;220697;1267;139140;-89
2023/03/05 14:28:28;;;;;;;11.60;3.80;;;;;;;2.27;88.06;99714.80;219325;1265;139180;-89
2023/03/05 14:33:32;;;;;;;13.00;5.80;;;;;;;2.29;89.13;99715.23;219917;1269;140579;-89
2023/03/05 14:38:33;;;;;;;15.30;4.90;;;;;;;2.32;88.70;99709.77;219295;1267;139684;-89
2023/03/05 14:43:33;;;;;;;16.10;6.10;;;;;;;2.37;89.20;99705.48;219718;1269;139059;-90
2023/03/05 14:48:34;;;;;;;12.90;5.20;;;;;;;2.42;88.85;99700.77;219570;1269;139269;-89
2023/03/05 14:53:41;;;;;;;13.90;4.90;;;;;;;2.47;89.23;99696.73;220105;1265;138939;-88
2023/03/05 14:58:42;;;;;;;15.00;4.50;;;;;;;2.53;88.17;99698.70;219611;1270;139641;-88
2023/03/05 15:03:42;;;;;;;12.90;4.60;;;;;;;2.55;87.49;99693.13;219925;1265;139126;-88
2023/03/05 15:08:43;;;;;;;15.00;5.10;;;;;;;2.57;87.76;99696.44;219502;1265;139206;-88
2023/03/05 15:13:43;;;;;;;12.10;3.90;;;;;;;2.58;86.48;99692.50;220813;1265;138658;-88
2023/03/05 15:18:44;;;;;;;8.50;2.60;;;;;;;2.57;85.01;99689.75;219657;1269;139537;-89
2023/03/05 15:23:45;;;;;;;15.20;4.40;;;;;;;2.55;82.93;99693.02;220025;1266;139345;-88
2023/03/05 15:28:45;;;;;;;13.00;4.60;;;;;;;2.54;82.94;99691.52;219462;1270;138918;-88
2023/03/05 15:33:46;;;;;;;18.60;5.60;;;;;;;2.55;82.70;99689.61;220176;1266;139140;-87
2023/03/05 15:38:46;;;;;;;13.60;5.50;;;;;;;2.53;81.20;99683.82;219566;1268;139493;-87
2023/03/05 15:43:47;;;;;;;10.50;4.20;;;;;;;2.49;79.88;99689.20;219938;1270;139729;-88
2023/03/05 15:48:49;;;;;;;11.30;4.40;;;;;;;2.47;79.25;99689.30;219642;1265;139380;-88
2023/03/05 15:53:49;;;;;;;14.70;5.50;;;;;;;2.40;78.93;99692.63;220093;1265;139449;-88
2023/03/05 15:58:50;;;;;;;14.40;4.30;;;;;;;2.32;79.54;99692.46;219533;1265;139547;-88
2023/03/05 16:03:51;;;;;;;11.40;4.50;;;;;;;2.25;79.76;99690.92;220609;1266;139579;-89
2023/03/05 16:08:56;;;;;;;10.50;3.50;;;;;;;2.14;81.05;99699.40;219576;1266;140523;-88
2023/03/05 16:13:59;;;;;;;12.80;5.50;;;;;;;2.05;82.25;99703.91;219800;1265;138622;-88
2023/03/05 16:19:01;;;;;;;15.10;6.10;;;;;;;1.97;83.44;99710.23;219320;1266;138736;-87
2023/03/05 16:24:01;;;;;;;16.00;6.30;;;;;;;1.89;84.13;99708.71;219835;1269;138957;-88
2023/03/05 16:29:02;;;;;;;13.10;6.40;;;;;;;1.77;84.77;99714.30;219246;1266;139437;-88
2023/03/05 16:34:03;;;;;;;29.60;17.50;;;;;;;1.68;85.28;99713.81;219895;1265;138865;-88
2023/03/05 16:39:04;;;;;;;25.70;12.10;;;;;;;1.58;85.98;99708.81;219326;1266;139154;-88
2023/03/05 16:44:04;;;;;;;14.70;5.80;;;;;;;1.52;86.34;99707.98;220131;1265;97971;-88
2023/03/05 16:49:05;;;;;;;15.80;6.80;;;;;;;1.44;86.65;99705.77;219447;1266;139037;-87
2023/03/05 16:54:06;;;;;;;15.80;5.40;;;;;;;1.36;86.72;99702.44;219866;1266;138878;-87
2023/03/05 16:59:06;;;;;;;16.00;6.00;;;;;;;1.30;87.43;99701.77;219779;1265;139616;-87
2023/03/05 17:04:06;;;;;;;19.10;8.10;;;;;;;1.23;87.39;99705.79;219818;1266;139243;-87
2023/03/05 17:09:07;;;;;;;22.40;10.10;;;;;;;1.14;88.01;99706.85;219231;1266;139073;-88
2023/03/05 17:14:07;;;;;;;27.60;10.90;;;;;;;1.08;88.13;99707.47;219947;1270;300313;-88
2023/03/05 17:19:07;;;;;;;25.60;9.00;;;;;;;1.01;87.85;99705.36;219337;1269;139597;-87
2023/03/05 17:24:09;;;;;;;27.30;12.10;;;;;;;0.84;88.22;99705.42;219951;1266;138877;-87
2023/03/05 17:29:09;;;;;;;23.00;11.20;;;;;;;0.76;88.65;99708.20;219459;1265;139207;-86
2023/03/05 17:34:10;;;;;;;24.00;11.70;;;;;;;0.67;88.76;99712.44;219689;1269;139565;-87
2023/03/05 17:39:11;;;;;;;24.50;10.40;;;;;;;0.60;89.28;99712.06;219157;1266;139750;-89
2023/03/05 17:44:12;;;;;;;20.40;7.10;;;;;;;0.53;89.31;99715.59;220046;1266;98056;-88
2023/03/05 17:49:12;;;;;;;18.20;6.40;;;;;;;0.45;89.64;99711.69;219462;1269;138881;-86
2023/03/05 17:54:13;;;;;;;15.20;6.00;;;;;;;0.36;90.15;99709.58;219880;1265;139297;-86
2023/03/05 17:59:15;;;;;;;14.30;5.40;;;;;;;0.31;90.90;99705.91;219349;1266;139354;-87
2023/03/05 18:04:16;;;;;;;21.40;8.10;;;;;;;0.27;91.12;99708.81;219934;1265;138864;-87
2023/03/05 18:09:16;;;;;;;26.20;10.50;;;;;;;0.23;91.79;99709.45;219303;1266;139659;-87
2023/03/05 18:14:17;;;;;;;22.50;9.30;;;;;;;0.19;91.52;99710.90;220037;1265;97991;-86
2023/03/05 18:19:18;;;;;;;18.90;8.70;;;;;;;0.15;91.88;99708.24;219545;1266;139221;-86
2023/03/05 18:24:19;;;;;;;20.70;9.50;;;;;;;0.10;92.19;99703.97;219761;1268;139072;-86
2023/03/05 18:29:19;;;;;;;18.60;8.10;;;;;;;0.05;92.70;99701.67;219278;1270;140146;-87
2023/03/05 18:34:20;;;;;;;18.40;9.50;;;;;;;0.02;92.82;99702.23;219736;1266;138958;-85
2023/03/05 18:39:20;;;;;;;19.10;8.40;;;;;;;-0.01;93.28;99701.27;219941;1266;139301;-86
2023/03/05 18:44:21;;;;;;;20.10;9.80;;;;;;;-0.05;93.37;99701.19;219979;1269;98030;-86
2023/03/05 18:49:26;;;;;;;18.40;9.20;;;;;;;-0.10;93.68;99698.90;219160;1268;138927;-85
2023/03/05 18:54:26;;;;;;;21.10;10.40;;;;;;;-0.14;93.82;99698.09;219693;1270;139089;-87
2023/03/05 18:59:28;;;;;;;19.70;11.00;;;;;;;-0.20;94.02;99699.80;219075;1266;139800;-85
2023/03/05 19:04:28;;;;;;;24.00;12.00;;;;;;;-0.28;93.98;99697.13;219939;1265;139165;-85
2023/03/05 19:09:47;;;;;;;20.00;10.60;;;;;;;-0.34;94.18;99693.80;219377;1265;139682;-86
2023/03/05 19:14:48;;;;;;;23.00;10.50;;;;;;;-0.42;94.56;99692.59;219929;1269;98777;-85
2023/03/05 19:19:53;;;;;;;26.50;11.60;;;;;;;-0.49;94.43;99692.95;219456;1270;139656;-85
2023/03/05 19:24:54;;;;;;;29.80;13.40;;;;;;;-0.61;94.63;99694.27;220008;1269;139646;-86
2023/03/05 19:29:54;;;;;;;34.40;15.40;;;;;;;-0.68;95.13;99687.52;219425;1266;139492;-84
2023/03/05 19:34:56;;;;;;;29.00;13.20;;;;;;;-0.75;95.34;99689.14;219891;1266;140703;-85
2023/03/05 19:39:57;;;;;;;26.10;11.80;;;;;;;-0.84;95.55;99681.39;219456;1269;139885;-84
2023/03/05 19:44:57;;;;;;;30.50;14.10;;;;;;;-0.93;96.00;99675.70;220091;1266;98057;-85
2023/03/05 19:49:58;;;;;;;37.30;15.90;;;;;;;-0.95;96.35;99673.05;219585;1270;139670;-85
2023/03/05 19:54:59;;;;;;;35.20;16.60;;;;;;;-1.02;96.48;99673.14;220089;1266;139261;-84
2023/03/05 19:59:59;;;;;;;42.60;19.10;;;;;;;-1.07;96.88;99671.85;219394;1266;140303;-84
2023/03/05 20:05:00;;;;;;;42.70;19.30;;;;;;;-1.10;96.99;99671.69;219920;1268;139403;-85
2023/03/05 20:10:00;;;;;;;49.60;24.90;;;;;;;-1.19;97.15;99667.12;219365;1270;140200;-84
2023/03/05 20:15:01;;;;;;;40.10;19.80;;;;;;;-1.26;97.12;99662.86;220023;1266;139871;-83
2023/03/05 20:20:02;;;;;;;33.50;17.30;;;;;;;-1.33;97.73;99665.02;223377;1265;139084;-84
2023/03/05 20:25:02;;;;;;;37.60;15.60;;;;;;;-1.38;97.65;99666.04;219985;1265;139499;-84
2023/03/05 20:30:05;;;;;;;31.50;14.00;;;;;;;-1.43;97.72;99671.72;219705;1266;139575;-84
2023/03/05 20:35:07;;;;;;;35.00;15.40;;;;;;;-1.48;98.14;99670.95;219903;1265;139347;-83
2023/03/05 20:40:08;;;;;;;33.80;16.20;;;;;;;-1.56;98.13;99670.91;219425;1270;139805;-84
2023/03/05 20:45:09;;;;;;;36.60;15.00;;;;;;;-1.66;98.06;99669.21;219863;1266;139348;-85
2023/03/05 20:50:11;;;;;;;29.60;12.10;;;;;;;-1.75;98.46;99671.92;219690;1270;139915;-84
2023/03/05 20:55:11;;;;;;;28.90;12.80;;;;;;;-1.84;98.72;99665.27;219891;1266;139671;-84
2023/03/05 21:00:12;;;;;;;34.60;15.40;;;;;;;-1.92;98.61;99660.97;219555;1266;139810;-85
2023/03/05 21:05:13;;;;;;;35.10;14.10;;;;;;;-2.02;98.90;99660.46;219922;1270;139828;-85
2023/03/05 21:10:17;;;;;;;31.50;14.50;;;;;;;-2.13;99.21;99660.34;219433;1266;139989;-82
2023/03/05 21:15:20;;;;;;;43.00;20.20;;;;;;;-2.14;99.54;99658.40;223751;1266;142252;-84
2023/03/05 21:20:26;;;;;;;35.60;14.50;;;;;;;-2.16;99.89;99656.33;223184;1268;140447;-84
2023/03/05 21:25:31;;;;;;;37.20;17.00;;;;;;;-2.21;99.92;99656.02;223667;1265;140331;-83
2023/03/05 21:30:36;;;;;;;41.20;17.40;;;;;;;-2.24;99.95;99654.89;221490;1266;140115;-84
2023/03/05 21:35:37;;;;;;;39.70;14.90;;;;;;;-2.26;100.00;99648.61;220123;1266;139630;-82
2023/03/05 21:40:42;;;;;;;32.80;14.20;;;;;;;-2.27;100.00;99648.11;219652;1270;140756;-83
2023/03/05 21:45:45;;;;;;;31.10;12.00;;;;;;;-2.26;100.00;99645.52;220217;1270;140813;-83
2023/03/05 21:50:46;;;;;;;26.60;12.90;;;;;;;-2.26;100.00;99640.23;219683;1266;139148;-82
2023/03/05 21:56:09;;;;;;;31.50;14.50;;;;;;;-2.24;100.00;99640.51;220366;1271;140368;-82
2023/03/05 22:01:11;;;;;;;38.50;14.70;;;;;;;-2.27;100.00;99634.64;219935;1266;244932;-81
2023/03/05 22:06:13;;;;;;;43.00;19.20;;;;;;;-2.30;100.00;99633.21;219639;1269;141143;-82
2023/03/05 22:11:16;;;;;;;39.70;18.50;;;;;;;-2.33;100.00;99626.97;220389;1266;140508;-82
2023/03/05 22:16:24;;;;;;;41.60;17.60;;;;;;;-2.37;100.00;99621.67;219670;1266;140297;-82
2023/03/05 22:21:27;;;;;;;45.90;22.70;;;;;;;-2.41;100.00;99616.51;219855;1266;139756;-82
2023/03/05 22:26:36;;;;;;;43.50;19.50;;;;;;;-2.47;100.00;99610.79;219453;1266;139633;-83
2023/03/05 22:31:37;;;;;;;40.90;20.20;;;;;;;-2.51;100.00;99606.11;219771;1266;140174;-82
2023/03/05 22:36:38;;;;;;;48.80;20.70;;;;;;;-2.57;100.00;99605.89;219322;1269;139847;-82
2023/03/05 22:41:40;;;;;;;58.00;22.40;;;;;;;-2.63;100.00;99604.95;219729;1266;139800;-82
2023/03/05 22:46:40;;;;;;;64.00;24.50;;;;;;;-2.70;100.00;99601.37;219207;1265;140091;-82
2023/03/05 22:51:41;;;;;;;53.80;22.10;;;;;;;-2.76;100.00;99595.64;220062;1266;140193;-81
2023/03/05 22:56:41;;;;;;;54.50;22.40;;;;;;;-2.81;100.00;99592.28;219638;1271;140580;-82